sensor_id;sensor_type;location;lat;lon;timestamp;pressure;altitude;pressure_sealevel;temperature;humidity
29941;BME280;16801;53.562;10.038;2023-07-31T00:02:44;100783.47;;;16.44;100.00
29941;BME280;16801;53.562;10.038;2023-07-31T00:06:07;100784.53;;;16.35;100.00
29941;BME280;16801;53.562;10.038;2023-07-31T00:09:28;100779.72;;;16.45;100.00
29941;BME280;16801;53.562;10.038;2023-07-31T00:12:49;100762.53;;;16.52;100.00
29941;BME280;16801;53.562;10.038;2023-07-31T00:16:10;100764.00;;;16.63;100.00
29941;BME280;16801;53.562;10.038;2023-07-31T00:19:31;100767.91;;;16.68;98.98
29941;BME280;16801;53.562;10.038;2023-07-31T00:22:53;100766.75;;;16.63;98.39
29941;BME280;16801;53.562;10.038;2023-07-31T00:26:14;100761.56;;;16.37;98.71
29941;BME280;16801;53.562;10.038;2023-07-31T00:29:35;100761.91;;;16.34;99.03
29941;BME280;16801;53.562;10.038;2023-07-31T00:32:58;100759.00;;;16.52;99.19
29941;BME280;16801;53.562;10.038;2023-07-31T00:36:19;100754.91;;;16.40;99.03
29941;BME280;16801;53.562;10.038;2023-07-31T00:39:41;100755.56;;;16.42;98.71
29941;BME280;16801;53.562;10.038;2023-07-31T00:43:02;100750.50;;;16.39;98.63
29941;BME280;16801;53.562;10.038;2023-07-31T00:46:24;100756.09;;;16.53;98.41
29941;BME280;16801;53.562;10.038;2023-07-31T00:49:45;100744.66;;;16.58;98.54
29941;BME280;16801;53.562;10.038;2023-07-31T00:53:06;100736.84;;;16.47;98.10
29941;BME280;16801;53.562;10.038;2023-07-31T00:56:29;100746.22;;;16.44;98.02
29941;BME280;16801;53.562;10.038;2023-07-31T00:59:50;100743.69;;;16.43;97.79
29941;BME280;16801;53.562;10.038;2023-07-31T01:03:11;100732.03;;;16.26;97.98
29941;BME280;16801;53.562;10.038;2023-07-31T01:06:36;100739.75;;;16.53;97.94
29941;BME280;16801;53.562;10.038;2023-07-31T01:10:03;100729.28;;;16.26;97.73
29941;BME280;16801;53.562;10.038;2023-07-31T01:13:26;100719.75;;;16.30;97.70
29941;BME280;16801;53.562;10.038;2023-07-31T01:16:47;100726.53;;;16.34;97.93
29941;BME280;16801;53.562;10.038;2023-07-31T01:20:11;100719.97;;;16.21;97.87
29941;BME280;16801;53.562;10.038;2023-07-31T01:23:44;100715.63;;;16.04;97.96
29941;BME280;16801;53.562;10.038;2023-07-31T01:27:16;100712.50;;;16.23;98.50
29941;BME280;16801;53.562;10.038;2023-07-31T01:30:42;100710.63;;;16.15;99.09
29941;BME280;16801;53.562;10.038;2023-07-31T01:34:04;100713.06;;;16.41;99.54
29941;BME280;16801;53.562;10.038;2023-07-31T01:37:29;100695.75;;;16.34;99.26
29941;BME280;16801;53.562;10.038;2023-07-31T01:40:51;100695.75;;;16.34;98.99
29941;BME280;16801;53.562;10.038;2023-07-31T01:44:14;100691.66;;;16.38;99.10
29941;BME280;16801;53.562;10.038;2023-07-31T01:47:35;100689.38;;;16.19;99.76
29941;BME280;16801;53.562;10.038;2023-07-31T01:51:00;100681.81;;;16.37;99.79
29941;BME280;16801;53.562;10.038;2023-07-31T01:54:20;100682.19;;;16.26;100.00
29941;BME280;16801;53.562;10.038;2023-07-31T01:57:41;100676.03;;;16.32;100.00
29941;BME280;16801;53.562;10.038;2023-07-31T02:01:04;100671.72;;;16.45;100.00
29941;BME280;16801;53.562;10.038;2023-07-31T02:04:28;100670.13;;;16.28;100.00
29941;BME280;16801;53.562;10.038;2023-07-31T02:07:48;100653.94;;;16.35;100.00
29941;BME280;16801;53.562;10.038;2023-07-31T02:11:09;100667.47;;;16.43;100.00
29941;BME280;16801;53.562;10.038;2023-07-31T02:14:30;100665.16;;;16.32;100.00
29941;BME280;16801;53.562;10.038;2023-07-31T02:17:52;100660.19;;;16.43;100.00
29941;BME280;16801;53.562;10.038;2023-07-31T02:21:13;100666.88;;;16.33;100.00
29941;BME280;16801;53.562;10.038;2023-07-31T02:24:34;100666.44;;;16.44;100.00
29941;BME280;16801;53.562;10.038;2023-07-31T02:27:55;100657.47;;;16.43;100.00
29941;BME280;16801;53.562;10.038;2023-07-31T02:31:16;100650.44;;;16.49;100.00
29941;BME280;16801;53.562;10.038;2023-07-31T02:34:40;100644.72;;;16.36;100.00
29941;BME280;16801;53.562;10.038;2023-07-31T02:38:01;100648.13;;;16.38;100.00
29941;BME280;16801;53.562;10.038;2023-07-31T02:41:21;100640.13;;;16.36;100.00
29941;BME280;16801;53.562;10.038;2023-07-31T02:44:42;100650.50;;;16.41;100.00
29941;BME280;16801;53.562;10.038;2023-07-31T02:48:03;100645.56;;;16.67;100.00
29941;BME280;16801;53.562;10.038;2023-07-31T02:51:26;100643.63;;;16.53;100.00
29941;BME280;16801;53.562;10.038;2023-07-31T02:54:47;100637.59;;;16.35;100.00
29941;BME280;16801;53.562;10.038;2023-07-31T02:58:08;100634.38;;;16.31;100.00
29941;BME280;16801;53.562;10.038;2023-07-31T03:01:29;100634.03;;;16.34;100.00
29941;BME280;16801;53.562;10.038;2023-07-31T03:04:50;100626.44;;;16.22;100.00
29941;BME280;16801;53.562;10.038;2023-07-31T03:08:12;100628.19;;;16.15;100.00
29941;BME280;16801;53.562;10.038;2023-07-31T03:11:33;100627.50;;;16.21;100.00
29941;BME280;16801;53.562;10.038;2023-07-31T03:14:54;100626.72;;;16.35;100.00
29941;BME280;16801;53.562;10.038;2023-07-31T03:18:14;100629.56;;;16.19;100.00
29941;BME280;16801;53.562;10.038;2023-07-31T03:21:35;100622.28;;;16.34;100.00
29941;BME280;16801;53.562;10.038;2023-07-31T03:24:57;100611.25;;;16.35;100.00
29941;BME280;16801;53.562;10.038;2023-07-31T03:28:18;100595.94;;;16.34;100.00
29941;BME280;16801;53.562;10.038;2023-07-31T03:31:39;100603.69;;;16.23;100.00
29941;BME280;16801;53.562;10.038;2023-07-31T03:35:00;100596.84;;;16.27;100.00
29941;BME280;16801;53.562;10.038;2023-07-31T03:38:22;100597.81;;;16.34;100.00
29941;BME280;16801;53.562;10.038;2023-07-31T03:41:44;100597.69;;;16.27;100.00
29941;BME280;16801;53.562;10.038;2023-07-31T03:45:06;100608.81;;;16.40;100.00
29941;BME280;16801;53.562;10.038;2023-07-31T03:48:28;100605.75;;;16.43;100.00
29941;BME280;16801;53.562;10.038;2023-07-31T03:51:49;100604.19;;;16.49;100.00
29941;BME280;16801;53.562;10.038;2023-07-31T03:55:10;100603.13;;;16.27;100.00
29941;BME280;16801;53.562;10.038;2023-07-31T03:58:33;100612.78;;;16.30;100.00
29941;BME280;16801;53.562;10.038;2023-07-31T04:01:54;100605.16;;;16.25;100.00
29941;BME280;16801;53.562;10.038;2023-07-31T04:05:15;100608.16;;;16.38;100.00
29941;BME280;16801;53.562;10.038;2023-07-31T04:08:36;100607.91;;;16.56;100.00
29941;BME280;16801;53.562;10.038;2023-07-31T04:11:57;100604.00;;;16.50;100.00
29941;BME280;16801;53.562;10.038;2023-07-31T04:15:19;100601.50;;;16.41;100.00
29941;BME280;16801;53.562;10.038;2023-07-31T04:18:40;100598.78;;;16.41;100.00
29941;BME280;16801;53.562;10.038;2023-07-31T04:22:01;100593.16;;;16.42;100.00
29941;BME280;16801;53.562;10.038;2023-07-31T04:25:22;100587.50;;;16.21;100.00
29941;BME280;16801;53.562;10.038;2023-07-31T04:28:43;100587.78;;;16.34;100.00
29941;BME280;16801;53.562;10.038;2023-07-31T04:32:06;100588.56;;;16.43;100.00
29941;BME280;16801;53.562;10.038;2023-07-31T04:35:27;100581.94;;;16.45;100.00
29941;BME280;16801;53.562;10.038;2023-07-31T04:38:48;100581.53;;;16.26;100.00
29941;BME280;16801;53.562;10.038;2023-07-31T04:42:08;100576.81;;;16.20;100.00
29941;BME280;16801;53.562;10.038;2023-07-31T04:45:29;100571.19;;;16.21;100.00
29941;BME280;16801;53.562;10.038;2023-07-31T04:48:52;100572.50;;;16.02;100.00
29941;BME280;16801;53.562;10.038;2023-07-31T04:52:13;100569.88;;;16.17;100.00
29941;BME280;16801;53.562;10.038;2023-07-31T04:55:33;100574.03;;;16.05;100.00
29941;BME280;16801;53.562;10.038;2023-07-31T04:58:55;100570.66;;;16.26;100.00
29941;BME280;16801;53.562;10.038;2023-07-31T05:02:17;100568.47;;;16.21;100.00
29941;BME280;16801;53.562;10.038;2023-07-31T05:05:39;100571.69;;;16.25;100.00
29941;BME280;16801;53.562;10.038;2023-07-31T05:09:03;100580.22;;;16.22;100.00
29941;BME280;16801;53.562;10.038;2023-07-31T05:12:24;100579.22;;;16.15;100.00
29941;BME280;16801;53.562;10.038;2023-07-31T05:15:45;100583.59;;;16.24;100.00
29941;BME280;16801;53.562;10.038;2023-07-31T05:19:06;100573.75;;;16.23;100.00
29941;BME280;16801;53.562;10.038;2023-07-31T05:22:28;100570.25;;;16.37;100.00
29941;BME280;16801;53.562;10.038;2023-07-31T05:25:49;100569.38;;;16.14;100.00
29941;BME280;16801;53.562;10.038;2023-07-31T05:29:10;100577.81;;;15.96;100.00
29941;BME280;16801;53.562;10.038;2023-07-31T05:32:31;100565.16;;;16.11;100.00
29941;BME280;16801;53.562;10.038;2023-07-31T05:35:52;100575.22;;;16.02;100.00
29941;BME280;16801;53.562;10.038;2023-07-31T05:39:14;100567.72;;;16.05;100.00
29941;BME280;16801;53.562;10.038;2023-07-31T05:42:35;100565.06;;;15.96;100.00
29941;BME280;16801;53.562;10.038;2023-07-31T05:45:57;100557.47;;;16.15;100.00
29941;BME280;16801;53.562;10.038;2023-07-31T05:49:18;100557.34;;;16.08;100.00
29941;BME280;16801;53.562;10.038;2023-07-31T05:52:39;100552.47;;;16.26;100.00
29941;BME280;16801;53.562;10.038;2023-07-31T05:56:01;100548.81;;;16.11;100.00
29941;BME280;16801;53.562;10.038;2023-07-31T05:59:22;100554.06;;;16.13;100.00
29941;BME280;16801;53.562;10.038;2023-07-31T06:02:43;100539.53;;;16.06;100.00
29941;BME280;16801;53.562;10.038;2023-07-31T06:06:04;100533.69;;;16.39;100.00
29941;BME280;16801;53.562;10.038;2023-07-31T06:09:25;100537.59;;;16.14;100.00
29941;BME280;16801;53.562;10.038;2023-07-31T06:12:47;100526.06;;;16.35;100.00
29941;BME280;16801;53.562;10.038;2023-07-31T06:16:08;100533.38;;;16.34;100.00
29941;BME280;16801;53.562;10.038;2023-07-31T06:19:29;100540.00;;;16.32;100.00
29941;BME280;16801;53.562;10.038;2023-07-31T06:22:50;100537.88;;;16.42;100.00
29941;BME280;16801;53.562;10.038;2023-07-31T06:26:10;100540.38;;;16.29;100.00
29941;BME280;16801;53.562;10.038;2023-07-31T06:29:33;100535.41;;;16.32;100.00
29941;BME280;16801;53.562;10.038;2023-07-31T06:32:54;100536.63;;;16.30;100.00
29941;BME280;16801;53.562;10.038;2023-07-31T06:36:14;100532.56;;;16.48;100.00
29941;BME280;16801;53.562;10.038;2023-07-31T06:39:35;100526.06;;;16.35;100.00
29941;BME280;16801;53.562;10.038;2023-07-31T06:42:57;100534.97;;;16.51;100.00
29941;BME280;16801;53.562;10.038;2023-07-31T06:46:19;100524.66;;;16.39;100.00
29941;BME280;16801;53.562;10.038;2023-07-31T06:49:39;100526.00;;;16.43;100.00
29941;BME280;16801;53.562;10.038;2023-07-31T06:53:00;100531.03;;;16.46;100.00
29941;BME280;16801;53.562;10.038;2023-07-31T06:56:22;100530.41;;;16.66;100.00
29941;BME280;16801;53.562;10.038;2023-07-31T06:59:42;100530.41;;;16.66;100.00
29941;BME280;16801;53.562;10.038;2023-07-31T07:03:04;100537.22;;;16.40;100.00
29941;BME280;16801;53.562;10.038;2023-07-31T07:06:25;100534.13;;;16.51;100.00
29941;BME280;16801;53.562;10.038;2023-07-31T07:09:46;100531.03;;;16.54;100.00
29941;BME280;16801;53.562;10.038;2023-07-31T07:13:07;100534.47;;;16.48;100.00
29941;BME280;16801;53.562;10.038;2023-07-31T07:16:28;100535.41;;;16.77;100.00
29941;BME280;16801;53.562;10.038;2023-07-31T07:19:50;100535.38;;;16.63;100.00
29941;BME280;16801;53.562;10.038;2023-07-31T07:23:12;100534.22;;;16.57;100.00
29941;BME280;16801;53.562;10.038;2023-07-31T07:26:32;100531.09;;;16.68;100.00
29941;BME280;16801;53.562;10.038;2023-07-31T07:29:53;100533.97;;;16.44;100.00
29941;BME280;16801;53.562;10.038;2023-07-31T07:33:14;100516.09;;;16.50;100.00
29941;BME280;16801;53.562;10.038;2023-07-31T07:36:36;100526.84;;;16.43;100.00
29941;BME280;16801;53.562;10.038;2023-07-31T07:39:57;100520.50;;;16.51;100.00
29941;BME280;16801;53.562;10.038;2023-07-31T07:43:18;100526.06;;;16.57;100.00
29941;BME280;16801;53.562;10.038;2023-07-31T07:46:40;100525.69;;;16.38;100.00
29941;BME280;16801;53.562;10.038;2023-07-31T07:50:01;100520.47;;;16.73;100.00
29941;BME280;16801;53.562;10.038;2023-07-31T07:53:23;100516.84;;;16.58;100.00
29941;BME280;16801;53.562;10.038;2023-07-31T07:56:44;100515.38;;;16.56;100.00
29941;BME280;16801;53.562;10.038;2023-07-31T08:00:06;100516.47;;;16.99;100.00
29941;BME280;16801;53.562;10.038;2023-07-31T08:03:33;100506.72;;;17.04;100.00
29941;BME280;16801;53.562;10.038;2023-07-31T08:06:54;100515.19;;;17.24;100.00
29941;BME280;16801;53.562;10.038;2023-07-31T08:10:16;100503.41;;;16.94;100.00
29941;BME280;16801;53.562;10.038;2023-07-31T08:13:37;100502.75;;;16.92;100.00
29941;BME280;16801;53.562;10.038;2023-07-31T08:16:58;100505.50;;;17.21;100.00
29941;BME280;16801;53.562;10.038;2023-07-31T08:20:19;100503.53;;;17.15;100.00
29941;BME280;16801;53.562;10.038;2023-07-31T08:23:40;100499.47;;;17.11;100.00
29941;BME280;16801;53.562;10.038;2023-07-31T08:27:02;100488.13;;;17.08;100.00
29941;BME280;16801;53.562;10.038;2023-07-31T08:30:23;100485.41;;;17.22;100.00
29941;BME280;16801;53.562;10.038;2023-07-31T08:33:44;100471.47;;;17.32;100.00
29941;BME280;16801;53.562;10.038;2023-07-31T08:37:05;100465.44;;;17.66;100.00
29941;BME280;16801;53.562;10.038;2023-07-31T08:40:26;100466.31;;;17.37;100.00
29941;BME280;16801;53.562;10.038;2023-07-31T08:43:51;100468.19;;;17.22;100.00
29941;BME280;16801;53.562;10.038;2023-07-31T08:47:13;100469.72;;;17.24;100.00
29941;BME280;16801;53.562;10.038;2023-07-31T08:50:34;100463.69;;;17.29;100.00
29941;BME280;16801;53.562;10.038;2023-07-31T08:53:56;100469.97;;;17.29;100.00
29941;BME280;16801;53.562;10.038;2023-07-31T08:57:18;100474.50;;;17.22;100.00
29941;BME280;16801;53.562;10.038;2023-07-31T09:00:41;100468.84;;;17.38;100.00
29941;BME280;16801;53.562;10.038;2023-07-31T09:04:04;100466.22;;;17.45;100.00
29941;BME280;16801;53.562;10.038;2023-07-31T09:07:26;100463.78;;;17.65;100.00
29941;BME280;16801;53.562;10.038;2023-07-31T09:10:48;100455.75;;;17.63;100.00
29941;BME280;16801;53.562;10.038;2023-07-31T09:14:10;100459.81;;;17.38;100.00
29941;BME280;16801;53.562;10.038;2023-07-31T09:17:33;100459.00;;;17.23;100.00
29941;BME280;16801;53.562;10.038;2023-07-31T09:21:03;100456.06;;;17.39;100.00
29941;BME280;16801;53.562;10.038;2023-07-31T09:24:27;100452.69;;;17.51;100.00
29941;BME280;16801;53.562;10.038;2023-07-31T09:27:50;100453.25;;;17.32;100.00
29941;BME280;16801;53.562;10.038;2023-07-31T09:31:12;100452.13;;;17.56;100.00
29941;BME280;16801;53.562;10.038;2023-07-31T09:34:38;100430.28;;;17.92;100.00
29941;BME280;16801;53.562;10.038;2023-07-31T09:38:01;100436.38;;;18.15;100.00
29941;BME280;16801;53.562;10.038;2023-07-31T09:41:23;100421.50;;;18.17;100.00
29941;BME280;16801;53.562;10.038;2023-07-31T09:44:44;100411.00;;;18.42;100.00
29941;BME280;16801;53.562;10.038;2023-07-31T09:48:07;100405.25;;;18.30;100.00
29941;BME280;16801;53.562;10.038;2023-07-31T09:51:30;100406.97;;;18.10;100.00
29941;BME280;16801;53.562;10.038;2023-07-31T09:54:51;100410.94;;;17.87;100.00
29941;BME280;16801;53.562;10.038;2023-07-31T09:58:12;100399.63;;;17.69;100.00
29941;BME280;16801;53.562;10.038;2023-07-31T10:01:34;100400.81;;;17.81;100.00
29941;BME280;16801;53.562;10.038;2023-07-31T10:04:57;100397.28;;;17.87;100.00
29941;BME280;16801;53.562;10.038;2023-07-31T10:08:28;100400.91;;;17.51;100.00
29941;BME280;16801;53.562;10.038;2023-07-31T10:11:56;100388.59;;;17.77;100.00
29941;BME280;16801;53.562;10.038;2023-07-31T10:15:20;100391.94;;;17.58;100.00
29941;BME280;16801;53.562;10.038;2023-07-31T10:18:41;100396.44;;;17.86;100.00
29941;BME280;16801;53.562;10.038;2023-07-31T10:22:03;100389.47;;;18.26;100.00
29941;BME280;16801;53.562;10.038;2023-07-31T10:25:26;100395.50;;;18.21;100.00
29941;BME280;16801;53.562;10.038;2023-07-31T10:28:47;100385.03;;;17.97;100.00
29941;BME280;16801;53.562;10.038;2023-07-31T10:32:09;100382.94;;;17.99;100.00
29941;BME280;16801;53.562;10.038;2023-07-31T10:35:32;100384.31;;;17.89;100.00
29941;BME280;16801;53.562;10.038;2023-07-31T10:38:55;100373.66;;;17.94;100.00
29941;BME280;16801;53.562;10.038;2023-07-31T10:42:18;100370.88;;;17.87;100.00
29941;BME280;16801;53.562;10.038;2023-07-31T10:45:41;100369.47;;;18.19;100.00
29941;BME280;16801;53.562;10.038;2023-07-31T10:49:03;100369.91;;;18.44;100.00
29941;BME280;16801;53.562;10.038;2023-07-31T10:52:23;100373.78;;;18.34;100.00
29941;BME280;16801;53.562;10.038;2023-07-31T10:55:46;100367.13;;;18.16;100.00
29941;BME280;16801;53.562;10.038;2023-07-31T10:59:10;100364.75;;;18.34;100.00
29941;BME280;16801;53.562;10.038;2023-07-31T11:02:33;100364.28;;;18.52;100.00
29941;BME280;16801;53.562;10.038;2023-07-31T11:06:00;100352.19;;;18.67;100.00
29941;BME280;16801;53.562;10.038;2023-07-31T11:09:22;100349.44;;;18.67;100.00
29941;BME280;16801;53.562;10.038;2023-07-31T11:12:45;100348.81;;;18.65;100.00
29941;BME280;16801;53.562;10.038;2023-07-31T11:16:07;100350.28;;;18.33;100.00
29941;BME280;16801;53.562;10.038;2023-07-31T11:19:28;100339.00;;;18.43;100.00
29941;BME280;16801;53.562;10.038;2023-07-31T11:22:49;100342.75;;;18.42;100.00
29941;BME280;16801;53.562;10.038;2023-07-31T11:26:10;100328.59;;;18.53;100.00
29941;BME280;16801;53.562;10.038;2023-07-31T11:29:31;100331.69;;;18.84;100.00
29941;BME280;16801;53.562;10.038;2023-07-31T11:32:55;100337.91;;;18.10;100.00
29941;BME280;16801;53.562;10.038;2023-07-31T11:36:17;100325.00;;;17.97;100.00
29941;BME280;16801;53.562;10.038;2023-07-31T11:39:38;100334.13;;;17.83;100.00
29941;BME280;16801;53.562;10.038;2023-07-31T11:43:03;100331.91;;;18.21;100.00
29941;BME280;16801;53.562;10.038;2023-07-31T11:46:25;100324.66;;;18.07;100.00
29941;BME280;16801;53.562;10.038;2023-07-31T11:49:47;100323.94;;;17.98;100.00
29941;BME280;16801;53.562;10.038;2023-07-31T11:53:09;100328.19;;;18.01;100.00
29941;BME280;16801;53.562;10.038;2023-07-31T11:56:30;100337.28;;;18.35;100.00
29941;BME280;16801;53.562;10.038;2023-07-31T11:59:52;100332.03;;;18.13;100.00
29941;BME280;16801;53.562;10.038;2023-07-31T12:03:13;100332.75;;;18.21;100.00
29941;BME280;16801;53.562;10.038;2023-07-31T12:06:36;100337.28;;;18.35;100.00
29941;BME280;16801;53.562;10.038;2023-07-31T12:09:57;100328.25;;;18.69;100.00
29941;BME280;16801;53.562;10.038;2023-07-31T12:13:20;100336.00;;;18.66;100.00
29941;BME280;16801;53.562;10.038;2023-07-31T12:16:42;100335.84;;;18.74;100.00
29941;BME280;16801;53.562;10.038;2023-07-31T12:20:04;100329.31;;;18.68;100.00
29941;BME280;16801;53.562;10.038;2023-07-31T12:23:29;100327.47;;;18.75;100.00
29941;BME280;16801;53.562;10.038;2023-07-31T12:26:51;100318.63;;;18.80;100.00
29941;BME280;16801;53.562;10.038;2023-07-31T12:30:26;100314.66;;;18.82;100.00
29941;BME280;16801;53.562;10.038;2023-07-31T12:33:49;100307.09;;;18.84;100.00
29941;BME280;16801;53.562;10.038;2023-07-31T12:37:11;100297.81;;;18.72;100.00
29941;BME280;16801;53.562;10.038;2023-07-31T12:40:33;100289.69;;;18.85;100.00
29941;BME280;16801;53.562;10.038;2023-07-31T12:43:53;100288.69;;;18.99;100.00
29941;BME280;16801;53.562;10.038;2023-07-31T12:47:14;100289.13;;;19.09;100.00
29941;BME280;16801;53.562;10.038;2023-07-31T12:50:35;100284.72;;;19.08;100.00
29941;BME280;16801;53.562;10.038;2023-07-31T12:53:56;100283.31;;;19.32;100.00
29941;BME280;16801;53.562;10.038;2023-07-31T12:57:18;100281.47;;;19.46;100.00
29941;BME280;16801;53.562;10.038;2023-07-31T13:00:39;100277.47;;;19.55;100.00
29941;BME280;16801;53.562;10.038;2023-07-31T13:04:00;100279.19;;;19.56;100.00
29941;BME280;16801;53.562;10.038;2023-07-31T13:07:22;100269.94;;;19.50;100.00
29941;BME280;16801;53.562;10.038;2023-07-31T13:10:42;100267.38;;;19.42;100.00
29941;BME280;16801;53.562;10.038;2023-07-31T13:14:05;100265.09;;;19.46;100.00
29941;BME280;16801;53.562;10.038;2023-07-31T13:17:25;100261.91;;;19.36;100.00
29941;BME280;16801;53.562;10.038;2023-07-31T13:20:47;100251.75;;;19.17;100.00
29941;BME280;16801;53.562;10.038;2023-07-31T13:24:07;100248.81;;;19.25;100.00
29941;BME280;16801;53.562;10.038;2023-07-31T13:27:29;100257.66;;;19.27;100.00
29941;BME280;16801;53.562;10.038;2023-07-31T13:30:51;100242.72;;;19.29;100.00
29941;BME280;16801;53.562;10.038;2023-07-31T13:34:12;100241.72;;;19.37;100.00
29941;BME280;16801;53.562;10.038;2023-07-31T13:37:33;100242.78;;;19.36;100.00
29941;BME280;16801;53.562;10.038;2023-07-31T13:40:54;100240.19;;;19.28;100.00
29941;BME280;16801;53.562;10.038;2023-07-31T13:44:16;100229.94;;;19.43;100.00
29941;BME280;16801;53.562;10.038;2023-07-31T13:47:38;100223.84;;;19.41;100.00
29941;BME280;16801;53.562;10.038;2023-07-31T13:51:00;100223.84;;;19.41;100.00
29941;BME280;16801;53.562;10.038;2023-07-31T13:54:22;100222.78;;;19.35;100.00
29941;BME280;16801;53.562;10.038;2023-07-31T13:57:43;100220.84;;;19.23;100.00
29941;BME280;16801;53.562;10.038;2023-07-31T14:01:04;100207.81;;;19.25;100.00
29941;BME280;16801;53.562;10.038;2023-07-31T14:04:26;100211.13;;;18.87;100.00
29941;BME280;16801;53.562;10.038;2023-07-31T14:07:47;100207.34;;;18.95;100.00
29941;BME280;16801;53.562;10.038;2023-07-31T14:11:08;100206.03;;;18.78;100.00
29941;BME280;16801;53.562;10.038;2023-07-31T14:14:29;100204.78;;;18.80;100.00
29941;BME280;16801;53.562;10.038;2023-07-31T14:17:50;100205.22;;;18.77;100.00
29941;BME280;16801;53.562;10.038;2023-07-31T14:21:12;100200.53;;;18.71;100.00
29941;BME280;16801;53.562;10.038;2023-07-31T14:24:33;100194.44;;;18.63;100.00
29941;BME280;16801;53.562;10.038;2023-07-31T14:27:54;100183.88;;;18.53;100.00
29941;BME280;16801;53.562;10.038;2023-07-31T14:31:15;100184.75;;;18.60;100.00
29941;BME280;16801;53.562;10.038;2023-07-31T14:34:36;100188.06;;;18.49;100.00
29941;BME280;16801;53.562;10.038;2023-07-31T14:37:58;100166.16;;;18.43;100.00
29941;BME280;16801;53.562;10.038;2023-07-31T14:41:18;100191.34;;;18.38;100.00
29941;BME280;16801;53.562;10.038;2023-07-31T14:44:39;100178.00;;;18.50;100.00
29941;BME280;16801;53.562;10.038;2023-07-31T14:48:00;100174.88;;;18.59;100.00
29941;BME280;16801;53.562;10.038;2023-07-31T14:51:21;100167.59;;;18.73;100.00
29941;BME280;16801;53.562;10.038;2023-07-31T14:54:43;100177.88;;;18.84;100.00
29941;BME280;16801;53.562;10.038;2023-07-31T14:58:04;100172.44;;;18.77;100.00
29941;BME280;16801;53.562;10.038;2023-07-31T15:01:25;100157.06;;;18.76;100.00
29941;BME280;16801;53.562;10.038;2023-07-31T15:04:46;100160.19;;;18.60;100.00
29941;BME280;16801;53.562;10.038;2023-07-31T15:08:07;100150.91;;;18.48;100.00
29941;BME280;16801;53.562;10.038;2023-07-31T15:11:29;100157.84;;;18.51;100.00
29941;BME280;16801;53.562;10.038;2023-07-31T15:14:50;100169.63;;;18.58;100.00
29941;BME280;16801;53.562;10.038;2023-07-31T15:18:11;100172.75;;;18.55;100.00
29941;BME280;16801;53.562;10.038;2023-07-31T15:21:32;100167.75;;;18.58;100.00
29941;BME280;16801;53.562;10.038;2023-07-31T15:24:53;100185.38;;;18.56;100.00
29941;BME280;16801;53.562;10.038;2023-07-31T15:28:15;100172.78;;;18.61;100.00
29941;BME280;16801;53.562;10.038;2023-07-31T15:31:38;100169.22;;;18.67;100.00
29941;BME280;16801;53.562;10.038;2023-07-31T15:34:58;100164.81;;;18.66;100.00
29941;BME280;16801;53.562;10.038;2023-07-31T15:38:19;100161.66;;;18.69;100.00
29941;BME280;16801;53.562;10.038;2023-07-31T15:41:41;100157.00;;;18.57;100.00
29941;BME280;16801;53.562;10.038;2023-07-31T15:45:03;100162.72;;;18.62;100.00
29941;BME280;16801;53.562;10.038;2023-07-31T15:48:24;100161.44;;;18.58;100.00
29941;BME280;16801;53.562;10.038;2023-07-31T15:51:45;100168.25;;;18.41;100.00
29941;BME280;16801;53.562;10.038;2023-07-31T15:55:06;100158.44;;;18.46;100.00
29941;BME280;16801;53.562;10.038;2023-07-31T15:58:27;100149.38;;;18.39;100.00
29941;BME280;16801;53.562;10.038;2023-07-31T16:01:49;100132.97;;;18.32;100.00
29941;BME280;16801;53.562;10.038;2023-07-31T16:05:10;100123.09;;;18.38;100.00
29941;BME280;16801;53.562;10.038;2023-07-31T16:08:32;100138.38;;;18.19;100.00
29941;BME280;16801;53.562;10.038;2023-07-31T16:11:52;100119.28;;;18.26;100.00
29941;BME280;16801;53.562;10.038;2023-07-31T16:15:13;100125.81;;;18.25;99.04
29941;BME280;16801;53.562;10.038;2023-07-31T16:18:35;100127.41;;;18.13;88.98
29941;BME280;16801;53.562;10.038;2023-07-31T16:21:57;100125.50;;;18.07;81.44
29941;BME280;16801;53.562;10.038;2023-07-31T16:25:18;100136.88;;;18.17;73.61
29941;BME280;16801;53.562;10.038;2023-07-31T16:28:39;100139.38;;;18.12;69.60
29941;BME280;16801;53.562;10.038;2023-07-31T16:31:59;100143.63;;;18.21;66.56
29941;BME280;16801;53.562;10.038;2023-07-31T16:35:21;100148.47;;;18.25;60.28
29941;BME280;16801;53.562;10.038;2023-07-31T16:38:42;100148.69;;;18.24;57.53
29941;BME280;16801;53.562;10.038;2023-07-31T16:42:04;100152.22;;;18.18;57.21
29941;BME280;16801;53.562;10.038;2023-07-31T16:45:26;100163.38;;;18.23;56.85
29941;BME280;16801;53.562;10.038;2023-07-31T16:48:46;100157.47;;;18.19;57.38
29941;BME280;16801;53.562;10.038;2023-07-31T16:52:09;100149.53;;;18.24;57.97
29941;BME280;16801;53.562;10.038;2023-07-31T16:55:30;100154.56;;;18.21;59.22
29941;BME280;16801;53.562;10.038;2023-07-31T16:58:53;100164.84;;;18.19;60.88
29941;BME280;16801;53.562;10.038;2023-07-31T17:02:14;100163.16;;;18.24;62.52
29941;BME280;16801;53.562;10.038;2023-07-31T17:05:35;100146.22;;;18.35;65.03
29941;BME280;16801;53.562;10.038;2023-07-31T17:08:58;100142.19;;;18.31;68.09